Nearby METAR Reports

 

KSJC - San Jose, California, USA
Distance from station: NE 14km
Actualización: 14/12/2017 14:53
Parcialmente nuboso
Parcialmente nuboso
 Viento del ONO
Viento: ONO 13 km/h
Temperatura: 20°C
Rocío: 2°C
Humedad: 30%
Barómetro: 1018.6 hPa
Clouds: Parcialmente nuboso
Visibility: 16 km
Cloud details: Few Clouds 975 m
Parcialmente nuboso 2896 m
2017/12/14 21:53 KSJC 142153Z 30007KT 10SM FEW032 SCT095 20/02 A3008 RMK AO2 SLP185 FU FEW032 T02000022
KNUQ - Moffett Nas/Mtn, California, USA
Distance from station: N 14km
Actualización: 14/12/2017 14:56
Despejado
Despejado
 Viento del N
Viento: N 7 km/h
Temperatura: 17°C
Rocío: 7°C
Humedad: 52%
Barómetro: 1019 hPa
Clouds: Despejado
Visibility: 16 km
2017/12/14 21:56 KNUQ 142156Z 36004KT 10SM CLR 17/07 A3009 RMK AO2 SLP190 T01720072
 
KPAO - Palo Alto, California, USA
Distance from station: NNO 23km
Actualización: 14/12/2017 13:47
NOT Current
Despejado
Despejado
 Viento del NNO
Viento: NNO 15 km/h
Temperatura: 17°C
Rocío: 10°C
Humedad: 64%
Barómetro: 1018.6 hPa
Clouds: Despejado
Visibility: 16 km
2017/12/14 20:47 KPAO 142047Z 34008KT 10SM SKC 17/10 A3008
KRHV - San Jose/Reid, California, USA
Distance from station: ENE 19km
Actualización: 14/12/2017 14:47
Despejado
Despejado
 Viento del NNO
Viento: NNO 9 km/h
Temperatura: 20°C
Rocío: 3°C
Humedad: 33%
Barómetro: 1017.9 hPa
Clouds: Despejado
Visibility: 16 km
2017/12/14 21:47 KRHV 142147Z 34005KT 10SM SKC 20/03 A3006
 
KOAK - Oakland, California, USA
Distance from station: NNO 50km
Actualización: 14/12/2017 14:53
Few Clouds
Few Clouds
 Viento del ONO
Viento: ONO 15 km/h
Temperatura: 17°C
Rocío: 6°C
Humedad: 49%
Barómetro: 1019 hPa
Clouds: Few Clouds
Visibility: 16 km
Cloud details: Few Clouds 6096 m
2017/12/14 21:53 KOAK 142153Z 30008KT 10SM FEW200 17/06 A3009 RMK AO2 SLP188 T01670061
KSQL - San Carlos Airpo, California, USA
Distance from station: NO 34km
Actualización: 14/12/2017 14:47
Few Clouds
Few Clouds
 Viento del NNO
Viento: NNO 6 km/h
Temperatura: 20°C
Rocío: 1°C
Humedad: 28%
Barómetro: 1019 hPa
Clouds: Few Clouds
Visibility: 16 km
Cloud details: Few Clouds 6096 m
2017/12/14 21:47 KSQL 142147Z 33003KT 10SM FEW200 20/01 A3009
 
KSFO - San Francisco, California, USA
Distance from station: NO 49km
Actualización: 14/12/2017 14:56
Few Clouds
Few Clouds
 Viento del NE
Viento: NE 6 km/h
Temperatura: 14°C
Rocío: 9°C
Humedad: 72%
Barómetro: 1018.6 hPa
Clouds: Few Clouds
Visibility: 14 km
Cloud details: Few Clouds 6096 m
2017/12/14 21:56 KSFO 142156Z 04003KT 9SM FEW200 14/09 A3008 RMK AO2 SLP187 T01440089
KE16 - San Martin, California, USA
Distance from station: ESE 43km
Actualización: 14/12/2017 15:10
Despejado
Despejado
 Viento del NO
Viento: NO 11 km/h
Temperatura: 21°C
Rocío: 1°C
Humedad: 27%
Barómetro: 1018.6 hPa
Clouds: Despejado
Visibility: 16 km
2017/12/14 22:10 KE16 142210Z AUTO 32006KT 10SM CLR 21/01 A3008 RMK AO2 PWINO PNO
 
KWVI - Watsonville, California, USA
Distance from station: SSE 44km
Actualización: 14/12/2017 14:53
Despejado
Despejado
 Viento del NO
Viento: NO 7 km/h
Temperatura: 23°C
Rocío: 3°C
Humedad: 27%
Barómetro: 1017.9 hPa
Clouds: Despejado
Visibility: 16 km
2017/12/14 21:53 KWVI 142153Z AUTO 31004KT 10SM CLR 23/03 A3006 RMK AO2 SLP179 T02280028
KHAF - Half Moon Bay, California, USA
Distance from station: ONO 50km
Actualización: 14/12/2017 15:35
Haze, Despejado
Haze, Despejado
 Viento del calm
Viento: Calma
Temperatura: 17°C
Rocío: 10°C
Humedad: 64%
Barómetro: 1017.3 hPa
Resumen: Haze
Clouds: Despejado
Visibility: 8 km
2017/12/14 22:35 KHAF 142235Z AUTO 00000KT 5SM HZ CLR 17/10 A3004 RMK AO2
 
KHWD - Hayward, California, USA
Distance from station: N 44km
Actualización: 14/12/2017 14:54
Despejado
Despejado
 Viento del O
Viento: O 13 km/h
Temperatura: 18°C
Rocío: 3°C
Humedad: 37%
Barómetro: 1018.6 hPa
Clouds: Despejado
Visibility: 16 km
2017/12/14 21:54 KHWD 142154Z 27007KT 10SM CLR 18/03 A3008 RMK AO2 SLP196 T01780028
KLVK - Livermore, California, USA
Distance from station: NNE 51km
Actualización: 14/12/2017 14:53
Despejado
Despejado
 Viento del ENE
Viento: ENE 15 km/h
Temperatura: 19°C
Rocío: 2°C
Humedad: 32%
Barómetro: 1018.6 hPa
Clouds: Despejado
Visibility: 16 km
2017/12/14 21:53 KLVK 142153Z 06008KT 10SM CLR 19/02 A3008 RMK AO2 SLP187 T01940017